sensor_id;sensor_type;location;lat;lon;timestamp;P1;durP1;ratioP1;P2;durP2;ratioP2
35578;SDS011;21687;48.900;9.188;2023-11-18T00:01:32;11.40;;;10.20;;
35578;SDS011;21687;48.900;9.188;2023-11-18T00:03:59;10.63;;;9.10;;
35578;SDS011;21687;48.900;9.188;2023-11-18T00:06:25;11.73;;;9.73;;
35578;SDS011;21687;48.900;9.188;2023-11-18T00:08:51;10.93;;;9.70;;
35578;SDS011;21687;48.900;9.188;2023-11-18T00:11:18;11.87;;;10.63;;
35578;SDS011;21687;48.900;9.188;2023-11-18T00:13:53;11.13;;;9.90;;
35578;SDS011;21687;48.900;9.188;2023-11-18T00:16:19;12.43;;;11.07;;
35578;SDS011;21687;48.900;9.188;2023-11-18T00:18:45;13.97;;;11.03;;
35578;SDS011;21687;48.900;9.188;2023-11-18T00:21:11;13.43;;;11.83;;
35578;SDS011;21687;48.900;9.188;2023-11-18T00:23:38;15.50;;;11.80;;
35578;SDS011;21687;48.900;9.188;2023-11-18T00:26:04;13.57;;;12.17;;
35578;SDS011;21687;48.900;9.188;2023-11-18T00:28:31;13.70;;;11.63;;
35578;SDS011;21687;48.900;9.188;2023-11-18T00:30:57;16.53;;;11.70;;
35578;SDS011;21687;48.900;9.188;2023-11-18T00:33:24;12.67;;;11.20;;
35578;SDS011;21687;48.900;9.188;2023-11-18T00:35:50;13.93;;;11.53;;
35578;SDS011;21687;48.900;9.188;2023-11-18T00:38:16;12.83;;;11.33;;
35578;SDS011;21687;48.900;9.188;2023-11-18T00:40:43;14.60;;;11.83;;
35578;SDS011;21687;48.900;9.188;2023-11-18T00:43:09;13.33;;;10.53;;
35578;SDS011;21687;48.900;9.188;2023-11-18T00:45:35;12.70;;;10.77;;
35578;SDS011;21687;48.900;9.188;2023-11-18T00:48:01;11.90;;;10.70;;
35578;SDS011;21687;48.900;9.188;2023-11-18T00:50:30;13.13;;;11.40;;
35578;SDS011;21687;48.900;9.188;2023-11-18T00:52:58;14.07;;;10.67;;
35578;SDS011;21687;48.900;9.188;2023-11-18T00:55:24;13.53;;;10.63;;
35578;SDS011;21687;48.900;9.188;2023-11-18T00:57:50;16.97;;;11.23;;
35578;SDS011;21687;48.900;9.188;2023-11-18T01:00:17;13.67;;;10.43;;
35578;SDS011;21687;48.900;9.188;2023-11-18T01:02:47;14.63;;;10.40;;
35578;SDS011;21687;48.900;9.188;2023-11-18T01:05:14;13.17;;;10.30;;
35578;SDS011;21687;48.900;9.188;2023-11-18T01:07:41;12.87;;;10.80;;
35578;SDS011;21687;48.900;9.188;2023-11-18T01:10:08;13.37;;;10.43;;
35578;SDS011;21687;48.900;9.188;2023-11-18T01:12:38;16.97;;;10.87;;
35578;SDS011;21687;48.900;9.188;2023-11-18T01:15:05;14.07;;;10.40;;
35578;SDS011;21687;48.900;9.188;2023-11-18T01:17:33;14.33;;;11.07;;
35578;SDS011;21687;48.900;9.188;2023-11-18T01:19:59;14.50;;;10.87;;
35578;SDS011;21687;48.900;9.188;2023-11-18T01:22:31;13.67;;;10.87;;
35578;SDS011;21687;48.900;9.188;2023-11-18T01:24:59;16.60;;;12.63;;
35578;SDS011;21687;48.900;9.188;2023-11-18T01:27:26;14.17;;;10.30;;
35578;SDS011;21687;48.900;9.188;2023-11-18T01:29:52;13.83;;;10.27;;
35578;SDS011;21687;48.900;9.188;2023-11-18T01:32:18;16.00;;;10.60;;
35578;SDS011;21687;48.900;9.188;2023-11-18T01:34:45;16.27;;;10.97;;
35578;SDS011;21687;48.900;9.188;2023-11-18T01:37:15;15.50;;;11.67;;
35578;SDS011;21687;48.900;9.188;2023-11-18T01:39:42;13.90;;;10.80;;
35578;SDS011;21687;48.900;9.188;2023-11-18T01:42:08;13.73;;;10.73;;
35578;SDS011;21687;48.900;9.188;2023-11-18T01:44:34;11.47;;;10.27;;
35578;SDS011;21687;48.900;9.188;2023-11-18T01:47:01;11.87;;;9.70;;
35578;SDS011;21687;48.900;9.188;2023-11-18T01:49:31;11.73;;;10.10;;
35578;SDS011;21687;48.900;9.188;2023-11-18T01:52:02;12.83;;;10.07;;
35578;SDS011;21687;48.900;9.188;2023-11-18T01:54:28;13.60;;;9.87;;
35578;SDS011;21687;48.900;9.188;2023-11-18T01:56:55;12.57;;;10.50;;
35578;SDS011;21687;48.900;9.188;2023-11-18T01:59:22;14.33;;;10.20;;
35578;SDS011;21687;48.900;9.188;2023-11-18T02:01:51;11.37;;;10.17;;
35578;SDS011;21687;48.900;9.188;2023-11-18T02:04:19;11.07;;;9.90;;
35578;SDS011;21687;48.900;9.188;2023-11-18T02:06:47;11.47;;;9.33;;
35578;SDS011;21687;48.900;9.188;2023-11-18T02:09:17;11.37;;;9.33;;
35578;SDS011;21687;48.900;9.188;2023-11-18T02:11:59;10.47;;;9.37;;
35578;SDS011;21687;48.900;9.188;2023-11-18T02:14:29;12.13;;;9.17;;
35578;SDS011;21687;48.900;9.188;2023-11-18T02:17:02;12.10;;;9.67;;
35578;SDS011;21687;48.900;9.188;2023-11-18T02:19:30;12.17;;;10.00;;
35578;SDS011;21687;48.900;9.188;2023-11-18T02:21:59;12.03;;;9.60;;
35578;SDS011;21687;48.900;9.188;2023-11-18T02:24:31;11.10;;;9.70;;
35578;SDS011;21687;48.900;9.188;2023-11-18T02:27:01;10.23;;;9.03;;
35578;SDS011;21687;48.900;9.188;2023-11-18T02:29:34;10.07;;;8.93;;
35578;SDS011;21687;48.900;9.188;2023-11-18T02:32:18;11.00;;;9.50;;
35578;SDS011;21687;48.900;9.188;2023-11-18T02:37:42;9.57;;;8.57;;
35578;SDS011;21687;48.900;9.188;2023-11-18T02:40:11;9.57;;;8.53;;
35578;SDS011;21687;48.900;9.188;2023-11-18T02:42:43;10.03;;;8.60;;
35578;SDS011;21687;48.900;9.188;2023-11-18T02:45:11;9.90;;;8.23;;
35578;SDS011;21687;48.900;9.188;2023-11-18T02:47:43;8.53;;;7.73;;
35578;SDS011;21687;48.900;9.188;2023-11-18T02:50:10;12.23;;;8.07;;
35578;SDS011;21687;48.900;9.188;2023-11-18T02:52:38;8.93;;;7.90;;
35578;SDS011;21687;48.900;9.188;2023-11-18T02:55:05;9.00;;;8.10;;
35578;SDS011;21687;48.900;9.188;2023-11-18T02:57:36;8.53;;;7.67;;
35578;SDS011;21687;48.900;9.188;2023-11-18T03:00:03;9.60;;;8.57;;
35578;SDS011;21687;48.900;9.188;2023-11-18T03:02:30;12.93;;;8.23;;
35578;SDS011;21687;48.900;9.188;2023-11-18T03:04:57;10.27;;;8.50;;
35578;SDS011;21687;48.900;9.188;2023-11-18T03:07:23;8.83;;;8.00;;
35578;SDS011;21687;48.900;9.188;2023-11-18T03:09:52;10.07;;;9.07;;
35578;SDS011;21687;48.900;9.188;2023-11-18T03:12:22;9.63;;;8.53;;
35578;SDS011;21687;48.900;9.188;2023-11-18T03:14:52;9.23;;;8.33;;
35578;SDS011;21687;48.900;9.188;2023-11-18T03:17:19;8.60;;;7.70;;
35578;SDS011;21687;48.900;9.188;2023-11-18T03:19:48;9.03;;;7.87;;
35578;SDS011;21687;48.900;9.188;2023-11-18T03:22:15;10.13;;;8.00;;
35578;SDS011;21687;48.900;9.188;2023-11-18T03:24:41;9.10;;;8.13;;
35578;SDS011;21687;48.900;9.188;2023-11-18T03:27:07;8.57;;;7.60;;
35578;SDS011;21687;48.900;9.188;2023-11-18T03:29:34;7.63;;;6.80;;
35578;SDS011;21687;48.900;9.188;2023-11-18T03:32:01;7.77;;;7.00;;
35578;SDS011;21687;48.900;9.188;2023-11-18T03:34:30;8.10;;;7.07;;
35578;SDS011;21687;48.900;9.188;2023-11-18T03:36:56;8.63;;;6.73;;
35578;SDS011;21687;48.900;9.188;2023-11-18T03:39:22;7.13;;;6.43;;
35578;SDS011;21687;48.900;9.188;2023-11-18T03:41:48;9.13;;;7.27;;
35578;SDS011;21687;48.900;9.188;2023-11-18T03:44:15;7.43;;;6.73;;
35578;SDS011;21687;48.900;9.188;2023-11-18T03:46:42;7.27;;;6.57;;
35578;SDS011;21687;48.900;9.188;2023-11-18T03:49:08;8.97;;;6.83;;
35578;SDS011;21687;48.900;9.188;2023-11-18T03:51:34;7.37;;;6.67;;
35578;SDS011;21687;48.900;9.188;2023-11-18T03:54:01;7.40;;;6.70;;
35578;SDS011;21687;48.900;9.188;2023-11-18T03:56:27;7.43;;;6.50;;
35578;SDS011;21687;48.900;9.188;2023-11-18T03:58:53;9.27;;;7.00;;
35578;SDS011;21687;48.900;9.188;2023-11-18T04:01:24;7.97;;;6.53;;
35578;SDS011;21687;48.900;9.188;2023-11-18T04:03:52;8.07;;;7.20;;
35578;SDS011;21687;48.900;9.188;2023-11-18T04:06:20;7.57;;;6.87;;
35578;SDS011;21687;48.900;9.188;2023-11-18T04:08:47;7.50;;;6.70;;
35578;SDS011;21687;48.900;9.188;2023-11-18T04:11:14;7.70;;;6.90;;
35578;SDS011;21687;48.900;9.188;2023-11-18T04:13:40;7.30;;;6.60;;
35578;SDS011;21687;48.900;9.188;2023-11-18T04:16:10;9.73;;;8.60;;
35578;SDS011;21687;48.900;9.188;2023-11-18T04:18:44;12.43;;;10.40;;
35578;SDS011;21687;48.900;9.188;2023-11-18T04:21:11;9.70;;;8.23;;
35578;SDS011;21687;48.900;9.188;2023-11-18T04:23:41;7.67;;;6.87;;
35578;SDS011;21687;48.900;9.188;2023-11-18T04:26:08;8.50;;;7.60;;
35578;SDS011;21687;48.900;9.188;2023-11-18T04:28:35;7.83;;;6.30;;
35578;SDS011;21687;48.900;9.188;2023-11-18T04:31:02;7.47;;;6.63;;
35578;SDS011;21687;48.900;9.188;2023-11-18T04:33:30;6.77;;;6.17;;
35578;SDS011;21687;48.900;9.188;2023-11-18T04:35:56;6.67;;;5.97;;
35578;SDS011;21687;48.900;9.188;2023-11-18T04:38:23;6.10;;;5.33;;
35578;SDS011;21687;48.900;9.188;2023-11-18T04:40:51;6.83;;;6.13;;
35578;SDS011;21687;48.900;9.188;2023-11-18T04:43:19;6.80;;;6.10;;
35578;SDS011;21687;48.900;9.188;2023-11-18T04:45:45;6.20;;;5.60;;
35578;SDS011;21687;48.900;9.188;2023-11-18T04:48:12;7.57;;;6.33;;
35578;SDS011;21687;48.900;9.188;2023-11-18T04:50:41;5.40;;;4.90;;
35578;SDS011;21687;48.900;9.188;2023-11-18T04:53:08;5.73;;;5.23;;
35578;SDS011;21687;48.900;9.188;2023-11-18T04:55:36;6.17;;;5.27;;
35578;SDS011;21687;48.900;9.188;2023-11-18T04:58:02;5.87;;;5.23;;
35578;SDS011;21687;48.900;9.188;2023-11-18T05:00:31;6.97;;;5.60;;
35578;SDS011;21687;48.900;9.188;2023-11-18T05:03:02;7.40;;;5.77;;
35578;SDS011;21687;48.900;9.188;2023-11-18T05:05:29;10.67;;;5.90;;
35578;SDS011;21687;48.900;9.188;2023-11-18T05:07:56;6.83;;;6.00;;
35578;SDS011;21687;48.900;9.188;2023-11-18T05:10:23;8.17;;;6.33;;
35578;SDS011;21687;48.900;9.188;2023-11-18T05:12:49;7.40;;;6.37;;
35578;SDS011;21687;48.900;9.188;2023-11-18T05:15:21;7.70;;;6.50;;
35578;SDS011;21687;48.900;9.188;2023-11-18T05:17:51;8.10;;;6.50;;
35578;SDS011;21687;48.900;9.188;2023-11-18T05:20:18;8.27;;;6.87;;
35578;SDS011;21687;48.900;9.188;2023-11-18T05:22:45;6.93;;;6.27;;
35578;SDS011;21687;48.900;9.188;2023-11-18T05:25:12;6.73;;;6.03;;
35578;SDS011;21687;48.900;9.188;2023-11-18T05:27:38;8.13;;;6.50;;
35578;SDS011;21687;48.900;9.188;2023-11-18T05:30:06;8.63;;;6.20;;
35578;SDS011;21687;48.900;9.188;2023-11-18T05:32:33;6.80;;;6.10;;
35578;SDS011;21687;48.900;9.188;2023-11-18T05:34:59;6.63;;;5.97;;
35578;SDS011;21687;48.900;9.188;2023-11-18T05:37:26;5.87;;;5.33;;
35578;SDS011;21687;48.900;9.188;2023-11-18T05:39:54;7.00;;;5.67;;
35578;SDS011;21687;48.900;9.188;2023-11-18T05:42:31;5.77;;;5.27;;
35578;SDS011;21687;48.900;9.188;2023-11-18T05:45:02;6.50;;;5.90;;
35578;SDS011;21687;48.900;9.188;2023-11-18T05:47:29;6.50;;;5.53;;
35578;SDS011;21687;48.900;9.188;2023-11-18T05:49:55;5.90;;;5.30;;
35578;SDS011;21687;48.900;9.188;2023-11-18T05:52:22;6.70;;;5.30;;
35578;SDS011;21687;48.900;9.188;2023-11-18T05:54:48;10.40;;;5.50;;
35578;SDS011;21687;48.900;9.188;2023-11-18T05:57:15;5.97;;;5.40;;
35578;SDS011;21687;48.900;9.188;2023-11-18T05:59:42;5.33;;;4.77;;
35578;SDS011;21687;48.900;9.188;2023-11-18T06:02:08;7.03;;;5.80;;
35578;SDS011;21687;48.900;9.188;2023-11-18T06:04:42;6.37;;;5.77;;
35578;SDS011;21687;48.900;9.188;2023-11-18T06:07:12;6.03;;;5.40;;
35578;SDS011;21687;48.900;9.188;2023-11-18T06:09:41;6.83;;;5.43;;
35578;SDS011;21687;48.900;9.188;2023-11-18T06:12:09;7.97;;;5.73;;
35578;SDS011;21687;48.900;9.188;2023-11-18T06:14:38;8.30;;;7.10;;
35578;SDS011;21687;48.900;9.188;2023-11-18T06:17:06;7.27;;;6.27;;
35578;SDS011;21687;48.900;9.188;2023-11-18T06:19:33;8.87;;;6.50;;
35578;SDS011;21687;48.900;9.188;2023-11-18T06:22:00;7.40;;;6.10;;
35578;SDS011;21687;48.900;9.188;2023-11-18T06:24:26;6.53;;;5.90;;
35578;SDS011;21687;48.900;9.188;2023-11-18T06:26:53;9.97;;;6.97;;
35578;SDS011;21687;48.900;9.188;2023-11-18T06:29:19;8.50;;;6.43;;
35578;SDS011;21687;48.900;9.188;2023-11-18T06:31:46;8.90;;;7.07;;
35578;SDS011;21687;48.900;9.188;2023-11-18T06:34:13;8.40;;;7.40;;
35578;SDS011;21687;48.900;9.188;2023-11-18T06:36:39;8.13;;;7.10;;
35578;SDS011;21687;48.900;9.188;2023-11-18T06:39:06;9.77;;;7.40;;
35578;SDS011;21687;48.900;9.188;2023-11-18T06:41:32;9.10;;;7.93;;
35578;SDS011;21687;48.900;9.188;2023-11-18T06:43:59;9.07;;;7.73;;
35578;SDS011;21687;48.900;9.188;2023-11-18T06:46:28;9.73;;;7.77;;
35578;SDS011;21687;48.900;9.188;2023-11-18T06:48:59;10.10;;;8.07;;
35578;SDS011;21687;48.900;9.188;2023-11-18T06:51:32;9.60;;;8.07;;
35578;SDS011;21687;48.900;9.188;2023-11-18T06:54:03;8.90;;;8.00;;
35578;SDS011;21687;48.900;9.188;2023-11-18T06:56:34;11.73;;;7.83;;
35578;SDS011;21687;48.900;9.188;2023-11-18T06:59:06;8.10;;;7.30;;
35578;SDS011;21687;48.900;9.188;2023-11-18T07:01:33;7.37;;;6.23;;
35578;SDS011;21687;48.900;9.188;2023-11-18T07:04:00;7.50;;;6.70;;
35578;SDS011;21687;48.900;9.188;2023-11-18T07:06:27;8.63;;;7.37;;
35578;SDS011;21687;48.900;9.188;2023-11-18T07:08:53;8.67;;;7.43;;
35578;SDS011;21687;48.900;9.188;2023-11-18T07:11:25;7.80;;;7.00;;
35578;SDS011;21687;48.900;9.188;2023-11-18T07:13:52;8.83;;;7.00;;
35578;SDS011;21687;48.900;9.188;2023-11-18T07:16:25;7.93;;;6.83;;
35578;SDS011;21687;48.900;9.188;2023-11-18T07:18:51;10.20;;;6.50;;
35578;SDS011;21687;48.900;9.188;2023-11-18T07:21:18;9.67;;;6.90;;
35578;SDS011;21687;48.900;9.188;2023-11-18T07:23:45;8.20;;;7.33;;
35578;SDS011;21687;48.900;9.188;2023-11-18T07:26:11;9.47;;;7.50;;
35578;SDS011;21687;48.900;9.188;2023-11-18T07:28:39;8.20;;;7.37;;
35578;SDS011;21687;48.900;9.188;2023-11-18T07:31:05;8.57;;;7.37;;
35578;SDS011;21687;48.900;9.188;2023-11-18T07:33:33;9.40;;;7.90;;
35578;SDS011;21687;48.900;9.188;2023-11-18T07:35:59;9.30;;;8.30;;
35578;SDS011;21687;48.900;9.188;2023-11-18T07:38:27;11.10;;;7.90;;
35578;SDS011;21687;48.900;9.188;2023-11-18T07:40:54;9.67;;;8.27;;
35578;SDS011;21687;48.900;9.188;2023-11-18T07:43:40;11.33;;;9.30;;
35578;SDS011;21687;48.900;9.188;2023-11-18T07:46:07;12.13;;;8.83;;
35578;SDS011;21687;48.900;9.188;2023-11-18T07:48:52;9.40;;;8.40;;
35578;SDS011;21687;48.900;9.188;2023-11-18T07:51:19;9.97;;;8.93;;
35578;SDS011;21687;48.900;9.188;2023-11-18T07:53:50;12.67;;;8.57;;
35578;SDS011;21687;48.900;9.188;2023-11-18T07:56:18;10.10;;;8.70;;
35578;SDS011;21687;48.900;9.188;2023-11-18T07:58:46;13.13;;;9.40;;
35578;SDS011;21687;48.900;9.188;2023-11-18T08:01:12;10.50;;;8.77;;
35578;SDS011;21687;48.900;9.188;2023-11-18T08:03:42;11.07;;;8.33;;
35578;SDS011;21687;48.900;9.188;2023-11-18T08:06:12;11.87;;;8.63;;
35578;SDS011;21687;48.900;9.188;2023-11-18T08:08:40;11.37;;;7.63;;
35578;SDS011;21687;48.900;9.188;2023-11-18T08:11:11;8.53;;;7.70;;
35578;SDS011;21687;48.900;9.188;2023-11-18T08:13:37;9.40;;;7.37;;
35578;SDS011;21687;48.900;9.188;2023-11-18T08:16:04;9.10;;;7.50;;
35578;SDS011;21687;48.900;9.188;2023-11-18T08:18:33;8.93;;;7.13;;
35578;SDS011;21687;48.900;9.188;2023-11-18T08:21:00;9.27;;;6.83;;
35578;SDS011;21687;48.900;9.188;2023-11-18T08:23:28;9.47;;;8.43;;
35578;SDS011;21687;48.900;9.188;2023-11-18T08:25:55;7.87;;;7.03;;
35578;SDS011;21687;48.900;9.188;2023-11-18T08:28:21;8.77;;;7.10;;
35578;SDS011;21687;48.900;9.188;2023-11-18T08:30:47;8.30;;;6.23;;
35578;SDS011;21687;48.900;9.188;2023-11-18T08:33:16;9.67;;;6.53;;
35578;SDS011;21687;48.900;9.188;2023-11-18T08:35:43;7.77;;;6.37;;
35578;SDS011;21687;48.900;9.188;2023-11-18T08:38:11;7.63;;;5.80;;
35578;SDS011;21687;48.900;9.188;2023-11-18T08:40:38;8.47;;;6.00;;
35578;SDS011;21687;48.900;9.188;2023-11-18T08:43:05;7.77;;;5.80;;
35578;SDS011;21687;48.900;9.188;2023-11-18T08:45:32;5.87;;;5.37;;
35578;SDS011;21687;48.900;9.188;2023-11-18T08:48:00;6.63;;;6.03;;
35578;SDS011;21687;48.900;9.188;2023-11-18T08:50:33;8.33;;;5.43;;
35578;SDS011;21687;48.900;9.188;2023-11-18T08:53:00;7.17;;;5.43;;
35578;SDS011;21687;48.900;9.188;2023-11-18T08:55:31;8.67;;;5.43;;
35578;SDS011;21687;48.900;9.188;2023-11-18T08:58:15;6.10;;;5.03;;
35578;SDS011;21687;48.900;9.188;2023-11-18T09:00:54;7.27;;;5.30;;
35578;SDS011;21687;48.900;9.188;2023-11-18T09:03:40;5.97;;;5.37;;
35578;SDS011;21687;48.900;9.188;2023-11-18T09:06:13;6.13;;;5.07;;
35578;SDS011;21687;48.900;9.188;2023-11-18T09:08:47;8.97;;;5.27;;
35578;SDS011;21687;48.900;9.188;2023-11-18T09:11:20;5.50;;;4.80;;
35578;SDS011;21687;48.900;9.188;2023-11-18T09:13:47;6.57;;;4.67;;
35578;SDS011;21687;48.900;9.188;2023-11-18T09:16:27;6.53;;;5.57;;
35578;SDS011;21687;48.900;9.188;2023-11-18T09:18:58;6.00;;;5.37;;
35578;SDS011;21687;48.900;9.188;2023-11-18T09:21:27;6.93;;;5.00;;
35578;SDS011;21687;48.900;9.188;2023-11-18T09:23:54;5.90;;;5.23;;
35578;SDS011;21687;48.900;9.188;2023-11-18T09:26:23;5.83;;;5.23;;
35578;SDS011;21687;48.900;9.188;2023-11-18T09:28:55;6.30;;;4.70;;
35578;SDS011;21687;48.900;9.188;2023-11-18T09:31:22;6.00;;;5.17;;
35578;SDS011;21687;48.900;9.188;2023-11-18T09:33:49;5.87;;;5.17;;
35578;SDS011;21687;48.900;9.188;2023-11-18T09:36:19;4.97;;;4.47;;
35578;SDS011;21687;48.900;9.188;2023-11-18T09:38:52;4.40;;;4.00;;
35578;SDS011;21687;48.900;9.188;2023-11-18T09:41:18;7.53;;;4.27;;
35578;SDS011;21687;48.900;9.188;2023-11-18T09:43:49;7.47;;;4.00;;
35578;SDS011;21687;48.900;9.188;2023-11-18T09:46:22;5.07;;;3.87;;
35578;SDS011;21687;48.900;9.188;2023-11-18T09:49:03;4.40;;;3.50;;
35578;SDS011;21687;48.900;9.188;2023-11-18T09:51:51;5.43;;;3.80;;
35578;SDS011;21687;48.900;9.188;2023-11-18T09:57:27;5.47;;;3.70;;
35578;SDS011;21687;48.900;9.188;2023-11-18T10:00:03;4.03;;;3.63;;
35578;SDS011;21687;48.900;9.188;2023-11-18T10:02:51;4.80;;;3.70;;
35578;SDS011;21687;48.900;9.188;2023-11-18T10:05:21;3.93;;;3.07;;
35578;SDS011;21687;48.900;9.188;2023-11-18T10:07:51;3.70;;;2.93;;
35578;SDS011;21687;48.900;9.188;2023-11-18T10:10:19;3.80;;;2.67;;
35578;SDS011;21687;48.900;9.188;2023-11-18T10:12:52;4.77;;;2.97;;
35578;SDS011;21687;48.900;9.188;2023-11-18T10:15:23;4.93;;;2.83;;
35578;SDS011;21687;48.900;9.188;2023-11-18T10:17:50;4.13;;;3.20;;
35578;SDS011;21687;48.900;9.188;2023-11-18T10:23:13;5.57;;;2.60;;
35578;SDS011;21687;48.900;9.188;2023-11-18T10:25:48;4.27;;;2.53;;
35578;SDS011;21687;48.900;9.188;2023-11-18T10:28:21;3.10;;;2.90;;
35578;SDS011;21687;48.900;9.188;2023-11-18T10:30:49;3.50;;;2.90;;
35578;SDS011;21687;48.900;9.188;2023-11-18T10:33:16;5.20;;;3.20;;
35578;SDS011;21687;48.900;9.188;2023-11-18T10:35:49;2.83;;;2.60;;
35578;SDS011;21687;48.900;9.188;2023-11-18T10:38:16;8.37;;;3.23;;
35578;SDS011;21687;48.900;9.188;2023-11-18T10:40:43;4.77;;;2.97;;
35578;SDS011;21687;48.900;9.188;2023-11-18T10:43:10;4.90;;;2.97;;
35578;SDS011;21687;48.900;9.188;2023-11-18T10:45:36;4.13;;;3.60;;
35578;SDS011;21687;48.900;9.188;2023-11-18T10:48:07;5.07;;;3.20;;
35578;SDS011;21687;48.900;9.188;2023-11-18T10:50:34;4.30;;;2.73;;
35578;SDS011;21687;48.900;9.188;2023-11-18T10:53:00;3.37;;;2.43;;
35578;SDS011;21687;48.900;9.188;2023-11-18T10:55:37;4.43;;;2.63;;
35578;SDS011;21687;48.900;9.188;2023-11-18T10:58:05;3.87;;;2.67;;
35578;SDS011;21687;48.900;9.188;2023-11-18T11:00:45;3.93;;;3.10;;
35578;SDS011;21687;48.900;9.188;2023-11-18T11:03:14;2.37;;;2.17;;
35578;SDS011;21687;48.900;9.188;2023-11-18T11:05:41;3.20;;;2.70;;
35578;SDS011;21687;48.900;9.188;2023-11-18T11:08:09;3.70;;;2.70;;
35578;SDS011;21687;48.900;9.188;2023-11-18T11:10:39;5.70;;;2.27;;
35578;SDS011;21687;48.900;9.188;2023-11-18T11:13:07;6.83;;;2.60;;
35578;SDS011;21687;48.900;9.188;2023-11-18T11:15:36;3.43;;;2.60;;
35578;SDS011;21687;48.900;9.188;2023-11-18T11:18:08;2.90;;;2.70;;
35578;SDS011;21687;48.900;9.188;2023-11-18T11:20:53;3.30;;;2.47;;
35578;SDS011;21687;48.900;9.188;2023-11-18T11:23:27;4.83;;;2.70;;
35578;SDS011;21687;48.900;9.188;2023-11-18T11:31:38;3.07;;;2.37;;
35578;SDS011;21687;48.900;9.188;2023-11-18T11:34:09;3.67;;;2.77;;
35578;SDS011;21687;48.900;9.188;2023-11-18T11:36:46;4.63;;;2.70;;
35578;SDS011;21687;48.900;9.188;2023-11-18T11:39:16;3.40;;;2.37;;
35578;SDS011;21687;48.900;9.188;2023-11-18T11:41:50;2.50;;;2.30;;
35578;SDS011;21687;48.900;9.188;2023-11-18T11:44:20;2.90;;;2.53;;
35578;SDS011;21687;48.900;9.188;2023-11-18T11:46:53;5.37;;;3.00;;
35578;SDS011;21687;48.900;9.188;2023-11-18T11:49:22;4.00;;;2.53;;
35578;SDS011;21687;48.900;9.188;2023-11-18T11:52:01;3.37;;;2.60;;
35578;SDS011;21687;48.900;9.188;2023-11-18T11:54:38;4.37;;;2.40;;
35578;SDS011;21687;48.900;9.188;2023-11-18T11:57:19;3.33;;;2.27;;
35578;SDS011;21687;48.900;9.188;2023-11-18T12:02:20;2.10;;;1.90;;
35578;SDS011;21687;48.900;9.188;2023-11-18T12:04:51;3.43;;;1.93;;
35578;SDS011;21687;48.900;9.188;2023-11-18T12:07:23;3.17;;;2.10;;
35578;SDS011;21687;48.900;9.188;2023-11-18T12:09:58;4.63;;;1.93;;
35578;SDS011;21687;48.900;9.188;2023-11-18T12:12:26;2.33;;;2.13;;
35578;SDS011;21687;48.900;9.188;2023-11-18T12:14:59;4.13;;;2.33;;
35578;SDS011;21687;48.900;9.188;2023-11-18T12:18:10;4.57;;;1.90;;
35578;SDS011;21687;48.900;9.188;2023-11-18T12:20:39;4.20;;;2.27;;
35578;SDS011;21687;48.900;9.188;2023-11-18T12:23:22;7.17;;;2.20;;
35578;SDS011;21687;48.900;9.188;2023-11-18T12:25:50;3.60;;;1.80;;
35578;SDS011;21687;48.900;9.188;2023-11-18T12:28:29;4.30;;;2.23;;
35578;SDS011;21687;48.900;9.188;2023-11-18T12:31:00;2.70;;;2.20;;
35578;SDS011;21687;48.900;9.188;2023-11-18T12:36:43;4.10;;;2.13;;
35578;SDS011;21687;48.900;9.188;2023-11-18T12:42:36;4.00;;;2.50;;
35578;SDS011;21687;48.900;9.188;2023-11-18T12:48:16;4.70;;;2.40;;
35578;SDS011;21687;48.900;9.188;2023-11-18T12:50:53;5.10;;;2.40;;
35578;SDS011;21687;48.900;9.188;2023-11-18T12:53:21;4.13;;;2.50;;
35578;SDS011;21687;48.900;9.188;2023-11-18T12:55:49;4.30;;;2.73;;
35578;SDS011;21687;48.900;9.188;2023-11-18T12:58:17;3.50;;;2.47;;
35578;SDS011;21687;48.900;9.188;2023-11-18T13:00:44;3.43;;;2.40;;
35578;SDS011;21687;48.900;9.188;2023-11-18T13:03:11;4.23;;;2.70;;
35578;SDS011;21687;48.900;9.188;2023-11-18T13:05:40;3.10;;;2.40;;
35578;SDS011;21687;48.900;9.188;2023-11-18T13:08:08;4.17;;;2.13;;
35578;SDS011;21687;48.900;9.188;2023-11-18T13:10:35;5.40;;;4.47;;
35578;SDS011;21687;48.900;9.188;2023-11-18T13:13:02;4.43;;;3.70;;
35578;SDS011;21687;48.900;9.188;2023-11-18T13:15:30;5.33;;;2.80;;
35578;SDS011;21687;48.900;9.188;2023-11-18T13:17:59;5.07;;;3.30;;
35578;SDS011;21687;48.900;9.188;2023-11-18T13:20:28;5.13;;;4.10;;
35578;SDS011;21687;48.900;9.188;2023-11-18T13:22:57;4.77;;;3.20;;
35578;SDS011;21687;48.900;9.188;2023-11-18T13:25:23;5.77;;;5.13;;
35578;SDS011;21687;48.900;9.188;2023-11-18T13:27:50;4.77;;;4.20;;
35578;SDS011;21687;48.900;9.188;2023-11-18T13:30:17;5.40;;;4.60;;
35578;SDS011;21687;48.900;9.188;2023-11-18T13:32:46;6.63;;;4.17;;
35578;SDS011;21687;48.900;9.188;2023-11-18T13:35:14;3.67;;;2.87;;
35578;SDS011;21687;48.900;9.188;2023-11-18T13:37:46;9.07;;;2.77;;
35578;SDS011;21687;48.900;9.188;2023-11-18T13:40:14;17.20;;;8.03;;
35578;SDS011;21687;48.900;9.188;2023-11-18T13:42:43;5.57;;;3.03;;
35578;SDS011;21687;48.900;9.188;2023-11-18T13:45:13;10.03;;;2.50;;
35578;SDS011;21687;48.900;9.188;2023-11-18T13:47:49;6.30;;;3.40;;
35578;SDS011;21687;48.900;9.188;2023-11-18T13:50:17;8.57;;;3.97;;
35578;SDS011;21687;48.900;9.188;2023-11-18T13:52:45;5.80;;;3.33;;
35578;SDS011;21687;48.900;9.188;2023-11-18T13:55:14;3.40;;;3.10;;
35578;SDS011;21687;48.900;9.188;2023-11-18T13:58:07;4.67;;;3.33;;
35578;SDS011;21687;48.900;9.188;2023-11-18T14:00:35;2.83;;;2.60;;
35578;SDS011;21687;48.900;9.188;2023-11-18T14:03:03;3.10;;;2.50;;
35578;SDS011;21687;48.900;9.188;2023-11-18T14:05:33;3.73;;;2.63;;
35578;SDS011;21687;48.900;9.188;2023-11-18T14:08:00;3.17;;;2.10;;
35578;SDS011;21687;48.900;9.188;2023-11-18T14:10:34;5.67;;;3.17;;
35578;SDS011;21687;48.900;9.188;2023-11-18T14:13:04;4.17;;;2.40;;
35578;SDS011;21687;48.900;9.188;2023-11-18T14:15:34;4.83;;;2.83;;
35578;SDS011;21687;48.900;9.188;2023-11-18T14:18:02;6.50;;;2.50;;
35578;SDS011;21687;48.900;9.188;2023-11-18T14:20:29;8.07;;;3.40;;
35578;SDS011;21687;48.900;9.188;2023-11-18T14:22:57;5.43;;;2.83;;
35578;SDS011;21687;48.900;9.188;2023-11-18T14:25:23;4.33;;;2.80;;
35578;SDS011;21687;48.900;9.188;2023-11-18T14:27:50;5.03;;;2.93;;
35578;SDS011;21687;48.900;9.188;2023-11-18T14:30:17;5.10;;;2.97;;
35578;SDS011;21687;48.900;9.188;2023-11-18T14:32:44;4.43;;;2.60;;
35578;SDS011;21687;48.900;9.188;2023-11-18T14:35:12;5.47;;;2.80;;
35578;SDS011;21687;48.900;9.188;2023-11-18T14:37:45;3.93;;;2.73;;
35578;SDS011;21687;48.900;9.188;2023-11-18T14:40:15;3.63;;;2.30;;
35578;SDS011;21687;48.900;9.188;2023-11-18T14:42:42;3.43;;;2.50;;
35578;SDS011;21687;48.900;9.188;2023-11-18T14:45:10;3.53;;;2.70;;
35578;SDS011;21687;48.900;9.188;2023-11-18T14:47:39;5.03;;;2.60;;
35578;SDS011;21687;48.900;9.188;2023-11-18T14:50:06;3.50;;;2.53;;
35578;SDS011;21687;48.900;9.188;2023-11-18T14:52:41;6.40;;;3.00;;
35578;SDS011;21687;48.900;9.188;2023-11-18T14:55:07;2.60;;;2.40;;
35578;SDS011;21687;48.900;9.188;2023-11-18T14:57:41;3.27;;;2.80;;
35578;SDS011;21687;48.900;9.188;2023-11-18T15:00:10;4.80;;;3.10;;
35578;SDS011;21687;48.900;9.188;2023-11-18T15:02:50;6.60;;;2.87;;
35578;SDS011;21687;48.900;9.188;2023-11-18T15:05:18;3.67;;;2.57;;
35578;SDS011;21687;48.900;9.188;2023-11-18T15:07:49;3.47;;;2.60;;
35578;SDS011;21687;48.900;9.188;2023-11-18T15:10:16;6.50;;;3.37;;
35578;SDS011;21687;48.900;9.188;2023-11-18T15:12:47;5.57;;;3.23;;
35578;SDS011;21687;48.900;9.188;2023-11-18T15:15:24;6.13;;;3.37;;
35578;SDS011;21687;48.900;9.188;2023-11-18T15:17:57;8.00;;;3.50;;
35578;SDS011;21687;48.900;9.188;2023-11-18T15:20:24;4.53;;;3.50;;
35578;SDS011;21687;48.900;9.188;2023-11-18T15:22:51;8.50;;;4.23;;